Time;durP1;ratioP1;P1;durP2;ratioP2;P2;SDS_P1;SDS_P2;PMS_P1;PMS_P2;Temp;Humidity;BMP_temperature;BMP_pressure;BME280_temperature;BME280_humidity;BME280_pressure;Samples;Min_cycle;Max_cycle;Signal;HPM_P1;HPM_P2
2024/02/04 00:02:09;;;;;;;14.25;3.28;;;;;;;10.04;100.00;102352.69;10362407;28;20053;-69
2024/02/04 00:07:09;;;;;;;3.75;3.42;;;;;;;10.04;100.00;102344.56;10330470;28;20064;-68
2024/02/04 00:12:10;;;;;;;1.20;1.20;;;;;;;10.07;100.00;102339.66;10369140;28;20049;-69
2024/02/04 00:17:10;;;;;;;1.05;1.05;;;;;;;10.07;100.00;102333.41;10337782;28;20030;-68
2024/02/04 00:22:11;;;;;;;9.05;7.55;;;;;;;10.07;100.00;102336.97;10338558;28;20038;-68
2024/02/04 00:27:11;;;;;;;1.20;1.15;;;;;;;10.11;100.00;102341.03;10338027;28;20351;-68
2024/02/04 00:32:12;;;;;;;0.68;0.68;;;;;;;10.08;100.00;102329.69;10369554;28;20042;-68
2024/02/04 00:37:12;;;;;;;0.82;0.82;;;;;;;10.06;100.00;102329.03;10337727;28;20470;-69
2024/02/04 00:42:12;;;;;;;7.20;3.30;;;;;;;10.13;100.00;102321.94;10337822;28;20050;-70
2024/02/04 00:47:13;;;;;;;1.40;1.33;;;;;;;10.17;100.00;102302.50;10336656;28;20078;-68
2024/02/04 00:52:13;;;;;;;1.80;1.80;;;;;;;10.22;100.00;102293.91;10337479;28;20430;-68
2024/02/04 00:57:14;;;;;;;0.43;0.43;;;;;;;10.16;100.00;102283.72;10335895;28;20082;-69
2024/02/04 01:02:14;;;;;;;0.98;0.98;;;;;;;10.15;100.00;102273.94;10336542;28;20129;-69
2024/02/04 01:07:15;;;;;;;0.40;0.40;;;;;;;10.18;100.00;102292.56;10336193;28;20038;-69
2024/02/04 01:12:15;;;;;;;1.63;1.52;;;;;;;10.08;100.00;102289.94;10337211;28;20057;-68
2024/02/04 01:17:16;;;;;;;0.30;0.30;;;;;;;10.03;100.00;102305.81;10335962;28;20038;-68
2024/02/04 01:22:16;;;;;;;0.35;0.35;;;;;;;9.98;100.00;102305.44;10335066;28;20049;-70
2024/02/04 01:27:17;;;;;;;1.25;1.20;;;;;;;9.97;100.00;102307.28;10335565;28;20030;-68
2024/02/04 01:32:17;;;;;;;35.90;3.70;;;;;;;9.96;100.00;102316.44;10336837;28;20046;-68
2024/02/04 01:37:18;;;;;;;0.20;0.20;;;;;;;10.04;100.00;102328.31;10317058;28;20045;-69
2024/02/04 01:42:18;;;;;;;0.40;0.40;;;;;;;10.00;100.00;102328.63;10366606;28;20128;-69
2024/02/04 01:47:20;;;;;;;1.10;1.08;;;;;;;9.88;100.00;102318.22;10334356;28;20109;-68
2024/02/04 01:52:20;;;;;;;0.98;0.98;;;;;;;9.78;100.00;102312.91;10366814;28;20455;-68
2024/02/04 01:57:21;;;;;;;0.38;0.38;;;;;;;9.62;100.00;102324.44;10365687;28;20062;-68
2024/02/04 02:02:21;;;;;;;1.40;1.40;;;;;;;9.55;100.00;102328.78;10333432;28;20113;-69
2024/02/04 02:07:22;;;;;;;1.60;1.55;;;;;;;9.54;100.00;102341.47;10332836;28;20073;-68
2024/02/04 02:12:24;;;;;;;1.23;1.15;;;;;;;9.52;100.00;102350.75;10336393;28;20038;-69
2024/02/04 02:17:29;;;;;;;2.92;2.78;;;;;;;9.55;100.00;102342.31;10334756;28;20496;-68
2024/02/04 02:23:17;;;;;;;1.95;1.67;;;;;;;9.54;100.00;102336.06;10317173;28;20113;-68
2024/02/04 02:28:17;;;;;;;;;;;;;;;9.58;100.00;102323.06;10327513;28;20497;-68
2024/02/04 02:33:18;;;;;;;0.47;0.47;;;;;;;9.57;100.00;102325.91;10332925;28;19914;-68
2024/02/04 02:38:33;;;;;;;1.02;1.02;;;;;;;9.54;100.00;102311.72;10332712;28;20126;-69
2024/02/04 02:43:34;;;;;;;1.45;1.45;;;;;;;9.57;100.00;102309.69;10333177;28;20398;-68
2024/02/04 02:48:35;;;;;;;0.30;0.30;;;;;;;9.54;100.00;102316.28;10331315;28;20107;-69
2024/02/04 02:53:35;;;;;;;0.73;0.73;;;;;;;9.57;100.00;102313.25;10315002;28;20053;-69
2024/02/04 02:58:35;;;;;;;2.65;2.55;;;;;;;9.64;100.00;102310.78;10332198;28;20046;-68
2024/02/04 03:03:36;;;;;;;0.77;0.77;;;;;;;9.71;100.00;102301.03;10332896;28;20360;-69
2024/02/04 03:08:36;;;;;;;0.30;0.30;;;;;;;9.73;100.00;102291.75;10332796;28;20053;-69
2024/02/04 03:13:40;;;;;;;0.70;0.70;;;;;;;9.80;100.00;102296.53;10330568;28;20053;-68
2024/02/04 03:18:40;;;;;;;0.52;0.52;;;;;;;9.76;100.00;102294.16;10331566;28;20060;-68
2024/02/04 03:23:42;;;;;;;0.45;0.45;;;;;;;9.71;100.00;102285.66;10330917;28;20057;-68
2024/02/04 03:28:42;;;;;;;0.63;0.63;;;;;;;9.68;100.00;102279.72;10332042;28;20030;-69
2024/02/04 03:33:42;;;;;;;0.40;0.40;;;;;;;9.59;100.00;102302.28;10330249;28;20034;-69
2024/02/04 03:38:43;;;;;;;0.55;0.55;;;;;;;9.54;100.00;102316.28;10332102;28;20042;-68
2024/02/04 03:43:43;;;;;;;5.80;5.25;;;;;;;9.41;100.00;102299.59;10331875;28;20116;-68
2024/02/04 03:48:44;;;;;;;0.70;0.70;;;;;;;9.38;100.00;102300.78;10338536;28;20561;-68
2024/02/04 03:53:45;;;;;;;0.73;0.73;;;;;;;9.36;100.00;102304.63;10338584;28;20494;-68
2024/02/04 03:58:45;;;;;;;3.90;3.65;;;;;;;9.42;100.00;102318.38;10338222;28;20117;-68
2024/02/04 04:03:46;;;;;;;2.72;1.85;;;;;;;9.42;100.00;102294.03;10370107;28;20054;-68
2024/02/04 04:08:46;;;;;;;1.58;1.58;;;;;;;9.39;100.00;102294.34;10356296;28;20045;-69
2024/02/04 04:13:46;;;;;;;0.40;0.40;;;;;;;9.39;100.00;102258.34;10353523;28;20541;-68
2024/02/04 04:18:47;;;;;;;2.50;2.20;;;;;;;9.35;100.00;102263.22;10339135;28;20034;-68
2024/02/04 04:23:47;;;;;;;3.05;2.85;;;;;;;9.36;100.00;102262.22;10337455;28;20536;-68
2024/02/04 04:28:47;;;;;;;1.55;1.45;;;;;;;9.27;100.00;102261.28;10338560;28;20119;-68
2024/02/04 04:33:48;;;;;;;10.50;4.97;;;;;;;9.26;100.00;102256.06;10338214;28;20097;-68
2024/02/04 04:38:50;;;;;;;0.50;0.50;;;;;;;9.27;100.00;102274.81;10336768;28;20089;-68
2024/02/04 04:43:50;;;;;;;1.45;1.42;;;;;;;9.26;100.00;102247.94;10337748;28;20101;-68
2024/02/04 04:48:52;;;;;;;2.50;2.30;;;;;;;9.29;100.00;102258.44;10337261;28;20041;-69
2024/02/04 04:53:52;;;;;;;0.95;0.95;;;;;;;9.26;100.00;102248.78;10336793;28;20062;-69
2024/02/04 04:58:53;;;;;;;0.50;0.50;;;;;;;9.26;100.00;102234.44;10366930;28;20058;-68
2024/02/04 05:03:53;;;;;;;0.40;0.40;;;;;;;9.22;100.00;102235.72;10367978;28;20086;-68
2024/02/04 05:08:54;;;;;;;0.40;0.40;;;;;;;9.30;100.00;102257.44;10351749;28;20034;-68
2024/02/04 05:13:54;;;;;;;1.10;1.10;;;;;;;9.21;100.00;102245.69;10337525;28;20042;-69
2024/02/04 05:18:54;;;;;;;1.85;1.75;;;;;;;9.23;100.00;102234.75;10334714;28;20352;-68
2024/02/04 05:23:55;;;;;;;0.50;0.50;;;;;;;9.24;100.00;102226.47;10350876;28;20045;-68
2024/02/04 05:28:55;;;;;;;2.05;1.95;;;;;;;9.22;100.00;102230.31;10335570;28;20514;-68
2024/02/04 05:33:56;;;;;;;0.30;0.30;;;;;;;9.26;100.00;102220.91;10335948;28;20118;-68
2024/02/04 05:38:56;;;;;;;6.60;2.30;;;;;;;9.30;100.00;102228.53;10334617;28;20045;-70
2024/02/04 05:43:56;;;;;;;3.78;3.42;;;;;;;9.34;100.00;102218.25;10334596;28;20030;-69
2024/02/04 05:48:57;;;;;;;0.30;0.30;;;;;;;9.36;100.00;102204.59;10350672;28;20081;-69
2024/02/04 05:53:57;;;;;;;1.90;1.83;;;;;;;9.36;100.00;102210.84;10349450;28;20133;-68
2024/02/04 05:58:58;;;;;;;0.73;0.73;;;;;;;9.45;100.00;102215.31;10334874;28;20522;-68
2024/02/04 06:03:58;;;;;;;0.50;0.50;;;;;;;9.46;100.00;102199.94;10335254;28;20045;-68
2024/02/04 06:08:58;;;;;;;2.25;2.15;;;;;;;9.40;100.00;102195.16;10334256;28;20390;-68
2024/02/04 06:13:59;;;;;;;0.60;0.60;;;;;;;9.37;100.00;102203.59;10336461;28;20034;-69
2024/02/04 06:18:59;;;;;;;0.68;0.68;;;;;;;9.38;100.00;102197.16;10334538;28;20047;-68
2024/02/04 06:24:00;;;;;;;0.68;0.68;;;;;;;9.32;100.00;102190.56;10334381;28;20035;-68
2024/02/04 06:29:00;;;;;;;0.77;0.77;;;;;;;9.44;100.00;102202.78;10333646;28;20049;-69
2024/02/04 06:34:01;;;;;;;0.30;0.30;;;;;;;9.48;100.00;102197.94;10333275;28;20042;-68
2024/02/04 06:39:01;;;;;;;1.42;1.42;;;;;;;9.49;100.00;102196.91;10332447;28;20443;-68
2024/02/04 06:44:03;;;;;;;0.98;0.98;;;;;;;9.49;100.00;102196.91;10332495;28;20034;-68
2024/02/04 06:49:04;;;;;;;4.22;3.60;;;;;;;9.35;100.00;102206.47;10332173;28;20117;-68
2024/02/04 06:54:04;;;;;;;2.58;2.38;;;;;;;9.39;100.00;102196.19;10333158;28;20096;-69
2024/02/04 06:59:05;;;;;;;2.03;1.95;;;;;;;9.29;100.00;102188.16;10332821;28;20078;-68
2024/02/04 07:04:05;;;;;;;0.40;0.40;;;;;;;9.27;100.00;102195.56;10333055;28;20042;-67
2024/02/04 07:09:05;;;;;;;3.63;3.50;;;;;;;9.27;100.00;102180.19;10331967;28;20049;-68
2024/02/04 07:14:06;;;;;;;0.98;0.98;;;;;;;9.18;100.00;102164.91;10363633;28;20097;-68
2024/02/04 07:19:06;;;;;;;1.30;1.30;;;;;;;9.13;100.00;102164.56;10363355;28;20039;-68
2024/02/04 07:24:07;;;;;;;0.40;0.40;;;;;;;9.14;100.00;102157.31;10331992;28;20038;-68
2024/02/04 07:29:07;;;;;;;0.30;0.30;;;;;;;9.17;100.00;102162.38;10331894;28;20120;-68
2024/02/04 07:34:08;;;;;;;0.40;0.40;;;;;;;9.26;100.00;102172.25;10363381;28;20039;-68
2024/02/04 07:39:08;;;;;;;6.55;2.75;;;;;;;9.28;100.00;102172.94;10329007;28;20110;-69
2024/02/04 07:44:08;;;;;;;0.40;0.40;;;;;;;9.25;100.00;102176.81;10332015;28;20053;-68
2024/02/04 07:49:09;;;;;;;1.00;1.00;;;;;;;9.25;100.00;102168.72;10330864;28;20403;-68
2024/02/04 07:54:09;;;;;;;1.88;1.77;;;;;;;9.28;100.00;102170.22;10331541;28;20092;-68
2024/02/04 07:59:09;;;;;;;1.23;1.13;;;;;;;9.33;100.00;102167.91;10331390;28;20468;-68
2024/02/04 08:04:10;;;;;;;0.20;0.20;;;;;;;9.40;100.00;102171.66;10331232;28;20059;-69
2024/02/04 08:09:11;;;;;;;0.43;0.43;;;;;;;9.43;100.00;102175.91;10330490;28;20044;-69
2024/02/04 08:14:13;;;;;;;0.32;0.32;;;;;;;9.50;100.00;102175.13;10330537;28;20093;-68
2024/02/04 08:19:14;;;;;;;0.60;0.60;;;;;;;9.58;100.00;102189.72;10330419;28;20484;-68
2024/02/04 08:24:14;;;;;;;1.98;1.83;;;;;;;9.62;100.00;102185.69;10330533;28;20046;-69
2024/02/04 08:29:15;;;;;;;0.40;0.40;;;;;;;9.69;100.00;102181.31;10362033;28;20039;-69
2024/02/04 08:34:15;;;;;;;0.55;0.55;;;;;;;9.70;100.00;102169.47;10337288;28;20145;-68
2024/02/04 08:39:15;;;;;;;0.40;0.40;;;;;;;9.72;100.00;102168.31;10336723;28;20082;-68
2024/02/04 08:44:16;;;;;;;0.40;0.40;;;;;;;9.72;100.00;102157.50;10337898;28;20399;-69
2024/02/04 08:49:16;;;;;;;0.30;0.30;;;;;;;9.80;100.00;102153.16;10337607;28;20474;-69
2024/02/04 08:54:17;;;;;;;0.50;0.50;;;;;;;9.82;100.00;102151.97;10337256;28;20061;-69
2024/02/04 08:59:17;;;;;;;1.38;1.38;;;;;;;9.88;100.00;102172.13;10335803;28;20104;-69
2024/02/04 09:04:18;;;;;;;2.30;1.33;;;;;;;9.95;100.00;102168.59;10337033;28;20034;-69
2024/02/04 09:09:18;;;;;;;0.40;0.40;;;;;;;9.95;100.00;102168.59;10367018;28;20034;-68
2024/02/04 09:14:19;;;;;;;0.38;0.38;;;;;;;10.04;100.00;102163.22;10336114;28;20045;-69
2024/02/04 09:19:19;;;;;;;0.40;0.40;;;;;;;10.07;100.00;102149.38;10336535;28;20049;-69
2024/02/04 09:24:20;;;;;;;0.45;0.45;;;;;;;10.12;100.00;102169.53;10336366;28;20356;-67
2024/02/04 09:29:20;;;;;;;0.30;0.30;;;;;;;10.16;100.00;102175.47;10335973;28;20050;-69
2024/02/04 09:34:21;;;;;;;0.40;0.40;;;;;;;10.16;100.00;102179.00;10335490;28;20049;-68
2024/02/04 09:39:22;;;;;;;0.50;0.50;;;;;;;10.05;100.00;102176.63;10334237;28;20061;-68
2024/02/04 09:44:23;;;;;;;0.50;0.50;;;;;;;9.99;100.00;102156.44;10334102;28;20038;-69
2024/02/04 09:49:23;;;;;;;0.30;0.30;;;;;;;9.98;100.00;102165.56;10335949;28;20042;-69
2024/02/04 09:54:23;;;;;;;0.50;0.50;;;;;;;9.98;100.00;102153.91;10333377;28;20047;-69
2024/02/04 09:59:24;;;;;;;0.50;0.50;;;;;;;9.94;100.00;102150.66;10334593;28;20073;-68
2024/02/04 10:04:24;;;;;;;0.95;0.95;;;;;;;9.90;100.00;102143.91;10316297;28;20560;-68
2024/02/04 10:09:24;;;;;;;0.93;0.93;;;;;;;9.88;100.00;102153.19;10334072;28;20043;-68
2024/02/04 10:14:25;;;;;;;0.55;0.55;;;;;;;9.90;100.00;102157.44;10333042;28;20030;-69
2024/02/04 10:19:26;;;;;;;0.77;0.77;;;;;;;9.94;100.00;102150.66;10334060;28;20052;-69
2024/02/04 10:24:30;;;;;;;0.32;0.32;;;;;;;10.04;100.00;102139.72;10334232;28;20051;-68
2024/02/04 10:29:31;;;;;;;0.30;0.30;;;;;;;10.09;100.00;102156.31;10332004;28;20072;-68
2024/02/04 10:34:31;;;;;;;0.60;0.60;;;;;;;10.21;100.00;102167.69;10332734;28;22405;-70
2024/02/04 10:39:31;;;;;;;0.30;0.30;;;;;;;10.20;100.00;102157.88;10332714;28;20062;-68
2024/02/04 10:44:34;;;;;;;1.00;1.00;;;;;;;10.25;100.00;102155.53;10332524;28;20042;-69
2024/02/04 10:49:36;;;;;;;0.40;0.40;;;;;;;10.27;100.00;102149.97;10331139;28;20363;-69
2024/02/04 10:54:39;;;;;;;0.30;0.30;;;;;;;10.30;100.00;102153.19;10330084;28;20096;-68
2024/02/04 10:59:40;;;;;;;0.30;0.30;;;;;;;10.37;100.00;102156.06;10332153;28;20109;-68
2024/02/04 11:04:41;;;;;;;2.28;2.15;;;;;;;10.45;100.00;102142.56;10331544;28;20038;-68
2024/02/04 11:09:41;;;;;;;1.70;1.48;;;;;;;10.54;100.00;102141.56;10331086;28;20061;-68
2024/02/04 11:14:42;;;;;;;0.35;0.35;;;;;;;10.55;100.00;102154.09;10315183;28;20030;-69
2024/02/04 11:20:07;;;;;;;1.02;1.02;;;;;;;10.71;100.00;102147.84;10313557;28;20444;-68
2024/02/04 11:25:37;;;;;;;0.50;0.50;;;;;;;10.77;100.00;102144.47;10330824;28;20045;-69
2024/02/04 11:30:37;;;;;;;0.32;0.32;;;;;;;10.89;100.00;102135.00;10329745;28;20096;-68
2024/02/04 11:35:38;;;;;;;0.40;0.40;;;;;;;10.85;100.00;102133.66;10362095;28;20038;-68
2024/02/04 11:40:38;;;;;;;0.40;0.40;;;;;;;10.84;100.00;102134.66;10329082;28;20038;-69
2024/02/04 11:45:42;;;;;;;0.40;0.40;;;;;;;11.00;100.00;102114.81;10331891;28;20034;-69
2024/02/04 11:50:42;;;;;;;0.73;0.73;;;;;;;11.06;100.00;102113.31;10330185;28;20044;-68
2024/02/04 11:55:43;;;;;;;2.42;2.20;;;;;;;11.21;100.00;102108.03;10345757;28;20038;-69
2024/02/04 12:00:45;;;;;;;0.60;0.60;;;;;;;11.22;100.00;102112.44;10313348;28;20054;-69
2024/02/04 12:05:45;;;;;;;0.40;0.40;;;;;;;11.16;100.00;102090.41;10331504;28;20386;-69
2024/02/04 12:10:47;;;;;;;1.38;1.38;;;;;;;11.13;100.00;102103.47;10321691;28;20030;-68
2024/02/04 12:15:48;;;;;;;0.38;0.38;;;;;;;11.17;100.00;102099.41;10337759;28;20479;-69
2024/02/04 12:20:52;;;;;;;1.33;1.33;;;;;;;11.28;100.00;102095.47;10369721;28;20049;-68
2024/02/04 12:25:53;;;;;;;1.83;1.73;;;;;;;11.36;100.00;102095.47;10368277;28;20038;-69
2024/02/04 12:30:58;;;;;;;0.95;0.95;;;;;;;11.49;100.00;102092.22;10338591;28;20116;-68
2024/02/04 12:36:00;;;;;;;0.50;0.50;;;;;;;11.69;100.00;102087.22;10338958;28;20454;-68
2024/02/04 12:41:04;;;;;;;0.40;0.40;;;;;;;11.63;100.00;102095.03;10337119;28;20643;-69
2024/02/04 12:46:04;;;;;;;0.30;0.30;;;;;;;11.38;100.00;102096.13;10336961;28;20445;-69
2024/02/04 12:51:05;;;;;;;0.30;0.30;;;;;;;11.27;100.00;102083.78;10336437;28;20127;-68
2024/02/04 12:56:05;;;;;;;2.47;2.38;;;;;;;11.30;100.00;102074.47;10335035;28;20036;-69
2024/02/04 13:01:06;;;;;;;0.50;0.50;;;;;;;11.26;100.00;102070.38;10336649;28;20189;-68
2024/02/04 13:06:07;;;;;;;2.75;1.45;;;;;;;11.29;100.00;102075.47;10336072;28;20041;-69
2024/02/04 13:11:07;;;;;;;0.30;0.30;;;;;;;11.27;100.00;102082.94;10336755;28;20069;-69
2024/02/04 13:16:08;;;;;;;0.90;0.90;;;;;;;11.30;100.00;102071.75;10335278;28;20074;-69
2024/02/04 13:21:08;;;;;;;5.68;1.75;;;;;;;11.42;100.00;102059.50;10335781;28;20096;-70
2024/02/04 13:26:08;;;;;;;0.30;0.30;;;;;;;11.45;100.00;102066.44;10334989;28;20061;-70
2024/02/04 13:31:09;;;;;;;1.40;1.38;;;;;;;11.40;100.00;102066.97;10336226;28;20042;-70
2024/02/04 13:36:09;;;;;;;1.23;1.23;;;;;;;11.36;100.00;102066.47;10335042;28;20082;-70
2024/02/04 13:41:10;;;;;;;4.13;1.13;;;;;;;11.32;100.00;102050.72;10335493;28;20034;-70
2024/02/04 13:46:10;;;;;;;2.25;1.85;;;;;;;11.18;100.00;102039.56;10351188;28;20045;-70
2024/02/04 13:51:11;;;;;;;0.75;0.75;;;;;;;11.02;100.00;102020.66;10335266;28;20390;-69
2024/02/04 13:56:11;;;;;;;0.30;0.30;;;;;;;10.88;100.00;102016.78;10333897;28;20034;-70
2024/02/04 14:01:13;;;;;;;0.50;0.50;;;;;;;10.81;100.00;102020.34;10333828;28;20486;-70
2024/02/04 14:06:13;;;;;;;16.23;6.57;;;;;;;10.85;100.00;102016.28;10335029;28;20049;-70
2024/02/04 14:11:13;;;;;;;22.13;6.85;;;;;;;10.70;100.00;102021.56;10333861;28;20363;-70
2024/02/04 14:16:14;;;;;;;17.00;5.28;;;;;;;10.67;100.00;102020.03;10333507;28;20037;-70
2024/02/04 14:21:14;;;;;;;23.77;7.25;;;;;;;10.64;100.00;102019.53;10333427;28;20038;-70
2024/02/04 14:26:18;;;;;;;15.85;5.38;;;;;;;10.50;100.00;102017.47;10334231;28;20090;-70
2024/02/04 14:31:18;;;;;;;16.02;5.50;;;;;;;10.44;100.00;102011.75;10332606;28;20040;-70
2024/02/04 14:36:19;;;;;;;13.65;5.03;;;;;;;10.44;100.00;102016.31;10332348;28;20041;-72
2024/02/04 14:41:20;;;;;;;31.75;6.82;;;;;;;10.52;100.00;102007.34;10332273;28;20427;-71
2024/02/04 14:46:20;;;;;;;24.35;7.95;;;;;;;10.57;100.00;102013.09;10332281;28;20046;-70
2024/02/04 14:51:20;;;;;;;13.40;5.78;;;;;;;10.60;100.00;102001.94;10331812;28;20045;-70
2024/02/04 14:56:21;;;;;;;25.75;6.82;;;;;;;10.66;100.00;101996.66;10332962;28;20374;-71
2024/02/04 15:01:21;;;;;;;14.88;6.07;;;;;;;10.63;100.00;101994.31;10331894;28;20054;-70
2024/02/04 15:06:22;;;;;;;19.20;8.65;;;;;;;10.70;100.00;102000.72;10332423;28;20031;-70
2024/02/04 15:11:22;;;;;;;19.17;6.20;;;;;;;10.70;100.00;101986.31;10332097;28;20046;-71
2024/02/04 15:16:23;;;;;;;31.42;9.25;;;;;;;10.63;100.00;101985.34;10345530;28;20034;-69
2024/02/04 15:21:24;;;;;;;14.68;5.97;;;;;;;10.58;100.00;101979.56;10331480;28;20046;-71
2024/02/04 15:26:26;;;;;;;24.10;8.15;;;;;;;10.51;100.00;101979.41;10331282;28;20038;-70
2024/02/04 15:31:28;;;;;;;38.03;8.70;;;;;;;10.51;100.00;101978.56;10314515;28;20107;-70
2024/02/04 15:36:28;;;;;;;25.88;8.65;;;;;;;10.40;100.00;101964.38;10330679;28;20038;-70
2024/02/04 15:41:29;;;;;;;25.85;7.97;;;;;;;10.26;100.00;101962.31;10350384;28;20121;-70
2024/02/04 15:46:29;;;;;;;22.98;9.02;;;;;;;10.24;100.00;101961.59;10340137;28;20030;-70
2024/02/04 15:51:30;;;;;;;35.13;7.43;;;;;;;10.30;100.00;101960.13;10340651;28;20036;-70
2024/02/04 15:56:32;;;;;;;25.05;6.72;;;;;;;10.19;100.00;101967.53;10338022;28;20121;-70
2024/02/04 16:01:32;;;;;;;18.30;6.75;;;;;;;10.15;100.00;101962.66;10321621;28;20058;-70
2024/02/04 16:06:33;;;;;;;23.08;7.82;;;;;;;10.22;100.00;101969.06;10337465;28;20038;-70
2024/02/04 16:11:50;;;;;;;19.58;9.95;;;;;;;10.14;100.00;101972.59;10337957;28;20042;-70
2024/02/04 16:16:51;;;;;;;29.17;8.05;;;;;;;10.07;100.00;101965.34;10337990;28;20489;-70
2024/02/04 16:21:53;;;;;;;33.92;9.07;;;;;;;10.00;100.00;101947.06;10337685;28;20046;-70
2024/02/04 16:26:53;;;;;;;26.10;6.65;;;;;;;10.01;100.00;101956.03;10338345;28;20042;-70
2024/02/04 16:31:54;;;;;;;37.20;9.00;;;;;;;10.05;100.00;101956.53;10337681;28;20042;-70
2024/02/04 16:36:54;;;;;;;27.55;8.73;;;;;;;10.09;100.00;101955.19;10337315;28;20473;-70
2024/02/04 16:41:55;;;;;;;17.00;7.22;;;;;;;10.11;100.00;101967.53;10337657;28;20038;-70
2024/02/04 16:46:56;;;;;;;32.33;8.23;;;;;;;10.10;100.00;101956.88;10352204;28;20092;-70
2024/02/04 16:51:57;;;;;;;27.13;7.78;;;;;;;10.02;100.00;101950.47;10339288;28;20046;-70
2024/02/04 16:56:57;;;;;;;35.10;9.40;;;;;;;10.04;100.00;101952.97;10338676;28;20474;-71
2024/02/04 17:01:58;;;;;;;40.53;8.82;;;;;;;10.02;100.00;101952.31;10319973;28;20050;-70
2024/02/04 17:06:58;;;;;;;40.58;10.48;;;;;;;9.99;100.00;101947.25;10352997;28;20070;-69
2024/02/04 17:11:59;;;;;;;33.38;9.07;;;;;;;9.96;100.00;101931.34;10337135;28;20445;-70
2024/02/04 17:17:10;;;;;;;32.47;10.23;;;;;;;9.93;100.00;101947.91;10336112;28;20026;-70
2024/02/04 17:22:13;;;;;;;33.10;8.18;;;;;;;9.89;100.00;101938.41;10336575;28;20034;-71
2024/02/04 17:27:14;;;;;;;33.13;9.68;;;;;;;9.88;100.00;101937.56;10335455;28;20038;-70
2024/02/04 17:32:14;;;;;;;29.60;7.95;;;;;;;9.82;100.00;101929.28;10368220;28;20420;-70
2024/02/04 17:37:15;;;;;;;44.38;11.13;;;;;;;9.86;100.00;101928.81;10335648;28;20045;-70
2024/02/04 17:42:15;;;;;;;28.15;9.20;;;;;;;9.86;100.00;101923.38;10334280;28;20034;-70
2024/02/04 17:47:16;;;;;;;24.55;9.40;;;;;;;9.89;100.00;101914.94;10334102;28;20494;-70
2024/02/04 17:52:17;;;;;;;19.23;7.55;;;;;;;9.92;100.00;101895.66;10334526;28;20088;-70
2024/02/04 17:57:17;;;;;;;30.35;10.02;;;;;;;9.89;100.00;101893.28;10365890;28;20057;-70
2024/02/04 18:02:18;;;;;;;22.10;9.20;;;;;;;9.95;100.00;101887.19;10334525;28;20089;-70
2024/02/04 18:07:19;;;;;;;38.75;9.88;;;;;;;10.04;100.00;101879.06;10333641;28;20087;-71
2024/02/04 18:12:20;;;;;;;30.35;8.95;;;;;;;10.04;100.00;101893.44;10334234;28;20157;-70
2024/02/04 18:17:21;;;;;;;28.83;7.93;;;;;;;10.14;100.00;101890.56;10349052;28;20038;-70
2024/02/04 18:22:21;;;;;;;27.02;8.32;;;;;;;10.15;100.00;101894.97;10333723;28;20041;-70
2024/02/04 18:27:22;;;;;;;21.80;6.90;;;;;;;10.11;100.00;101899.03;10334755;28;20105;-70
2024/02/04 18:32:23;;;;;;;33.88;7.75;;;;;;;10.07;100.00;101900.38;10333704;28;20082;-70
2024/02/04 18:37:23;;;;;;;30.48;7.97;;;;;;;9.92;100.00;101901.06;10331720;28;20081;-70
2024/02/04 18:42:24;;;;;;;26.42;8.73;;;;;;;9.78;100.00;101894.44;10333500;28;20050;-71
2024/02/04 18:47:24;;;;;;;26.98;9.00;;;;;;;9.61;100.00;101895.47;10331736;28;20041;-70
2024/02/04 18:52:26;;;;;;;13.63;7.88;;;;;;;9.45;100.00;101898.97;10332457;28;20039;-70
2024/02/04 18:57:28;;;;;;;27.00;8.02;;;;;;;9.34;100.00;101893.03;10332698;28;20050;-70
2024/02/04 19:02:28;;;;;;;42.35;9.10;;;;;;;9.28;100.00;101889.13;10364718;28;20054;-70
2024/02/04 19:07:28;;;;;;;24.65;9.23;;;;;;;9.25;100.00;101893.03;10332466;28;20042;-70
2024/02/04 19:12:29;;;;;;;21.00;10.40;;;;;;;9.22;100.00;101897.88;10314033;28;20034;-70
2024/02/04 19:17:31;;;;;;;30.30;7.90;;;;;;;9.17;100.00;101887.56;10330078;28;20033;-70
2024/02/04 19:22:31;;;;;;;21.48;8.63;;;;;;;9.13;100.00;101890.78;10345933;28;20034;-70
2024/02/04 19:27:31;;;;;;;32.17;10.23;;;;;;;9.28;100.00;101913.44;10331570;28;20398;-70
2024/02/04 19:32:32;;;;;;;23.55;11.25;;;;;;;9.42;100.00;101922.81;10331962;28;20039;-70
2024/02/04 19:37:32;;;;;;;33.00;10.30;;;;;;;9.47;100.00;101909.63;10332029;28;20026;-70
2024/02/04 19:42:32;;;;;;;39.15;9.73;;;;;;;9.59;100.00;101902.03;10331181;28;20526;-70
2024/02/04 19:47:36;;;;;;;27.45;9.88;;;;;;;9.67;100.00;101911.03;10332590;28;20179;-70
2024/02/04 19:52:36;;;;;;;29.70;9.18;;;;;;;9.61;100.00;101892.75;10329694;28;20472;-70
2024/02/04 19:57:37;;;;;;;35.08;9.85;;;;;;;9.59;100.00;101880.41;10314299;28;20120;-70
2024/02/04 20:02:37;;;;;;;25.80;9.18;;;;;;;9.53;100.00;101877.34;10331057;28;20556;-70
2024/02/04 20:07:38;;;;;;;35.63;9.82;;;;;;;9.43;100.00;101881.22;10330322;28;20045;-70
2024/02/04 20:12:38;;;;;;;33.35;11.23;;;;;;;9.32;100.00;101879.69;10331052;28;20034;-70
2024/02/04 20:17:38;;;;;;;33.08;9.18;;;;;;;9.29;100.00;101885.44;10329849;28;20049;-70
2024/02/04 20:22:39;;;;;;;26.42;9.60;;;;;;;9.27;100.00;101882.03;10330217;28;20034;-70
2024/02/04 20:27:39;;;;;;;28.85;8.52;;;;;;;9.34;100.00;101883.06;10316903;28;20414;-70
2024/02/04 20:32:40;;;;;;;48.28;11.23;;;;;;;9.36;100.00;101877.50;10353987;28;20088;-70
2024/02/04 20:37:40;;;;;;;21.13;7.15;;;;;;;9.35;100.00;101882.06;10320817;28;20034;-70
2024/02/04 20:42:40;;;;;;;31.10;10.35;;;;;;;9.47;100.00;101883.41;10368948;28;20432;-71
2024/02/04 20:47:43;;;;;;;21.30;7.93;;;;;;;9.51;100.00;101879.38;10337694;28;20030;-70
2024/02/04 20:52:43;;;;;;;27.40;8.43;;;;;;;9.55;100.00;101896.13;10336624;28;20046;-69
2024/02/04 20:57:44;;;;;;;35.80;11.02;;;;;;;9.57;100.00;101895.94;10368640;28;20045;-70
2024/02/04 21:02:44;;;;;;;33.88;9.20;;;;;;;9.57;100.00;101912.16;10337503;28;20141;-70
2024/02/04 21:07:45;;;;;;;22.30;9.27;;;;;;;9.55;100.00;101902.38;10336566;28;20042;-70
2024/02/04 21:12:45;;;;;;;48.28;10.88;;;;;;;9.51;100.00;101898.31;10337757;28;20057;-70
2024/02/04 21:17:46;;;;;;;40.60;9.88;;;;;;;9.43;100.00;101914.50;10336270;28;20034;-70
2024/02/04 21:22:46;;;;;;;27.98;9.73;;;;;;;9.41;100.00;101915.69;10337556;28;20054;-71
2024/02/04 21:27:47;;;;;;;27.95;9.82;;;;;;;9.42;100.00;101914.69;10336249;28;20030;-70
2024/02/04 21:32:48;;;;;;;38.53;10.38;;;;;;;9.43;100.00;101911.81;10335545;28;20038;-71
2024/02/04 21:37:51;;;;;;;18.58;9.77;;;;;;;9.50;100.00;101917.41;10333253;28;20034;-70
2024/02/04 21:42:51;;;;;;;22.20;8.02;;;;;;;9.59;100.00;101934.50;10335849;28;20030;-71
2024/02/04 21:47:52;;;;;;;34.45;11.10;;;;;;;9.62;100.00;101924.19;10334922;28;20068;-70
2024/02/04 21:52:52;;;;;;;35.97;8.90;;;;;;;9.71;100.00;101944.81;10335117;28;20034;-71
2024/02/04 21:57:52;;;;;;;48.35;10.23;;;;;;;9.71;100.00;101936.72;10335405;28;20450;-71
2024/02/04 22:02:53;;;;;;;29.50;9.40;;;;;;;9.83;100.00;101929.13;10334309;28;20058;-71
2024/02/04 22:07:53;;;;;;;29.73;7.97;;;;;;;9.84;100.00;101944.34;10334105;28;20093;-70
2024/02/04 22:12:54;;;;;;;38.83;7.75;;;;;;;9.81;100.00;101938.44;10366731;28;20396;-71
2024/02/04 22:17:54;;;;;;;26.67;8.18;;;;;;;9.64;100.00;101942.97;10333832;28;20034;-71
2024/02/04 22:22:55;;;;;;;30.55;8.13;;;;;;;9.44;100.00;101927.00;10333525;28;20371;-71
2024/02/04 22:27:55;;;;;;;26.30;10.25;;;;;;;9.32;100.00;101931.91;10365795;28;20042;-70
2024/02/04 22:32:55;;;;;;;20.50;8.75;;;;;;;9.24;100.00;101931.00;10332513;28;20425;-70
2024/02/04 22:37:56;;;;;;;35.05;9.38;;;;;;;9.19;100.00;101933.34;10333759;28;20088;-70
2024/02/04 22:42:57;;;;;;;34.05;8.57;;;;;;;9.11;100.00;101946.84;10332666;28;20034;-70
2024/02/04 22:47:57;;;;;;;20.70;7.97;;;;;;;9.14;100.00;101944.66;10332316;28;20046;-71